sensor_id;sensor_type;location;lat;lon;timestamp;pressure;altitude;pressure_sealevel;temperature;humidity
49759;BME280;70329;45.524;10.194;2023-08-31T00:00:40;99550.84;;;19.51;81.17
49759;BME280;70329;45.524;10.194;2023-08-31T00:03:06;99556.03;;;19.53;80.88
49759;BME280;70329;45.524;10.194;2023-08-31T00:05:31;99559.72;;;19.57;80.42
49759;BME280;70329;45.524;10.194;2023-08-31T00:07:56;99549.41;;;19.57;80.29
49759;BME280;70329;45.524;10.194;2023-08-31T00:10:22;99549.06;;;19.59;80.34
49759;BME280;70329;45.524;10.194;2023-08-31T00:12:48;99555.44;;;19.59;80.11
49759;BME280;70329;45.524;10.194;2023-08-31T00:15:14;99558.22;;;19.59;79.53
49759;BME280;70329;45.524;10.194;2023-08-31T00:17:40;99553.44;;;19.60;79.95
49759;BME280;70329;45.524;10.194;2023-08-31T00:20:07;99556.00;;;19.65;79.25
49759;BME280;70329;45.524;10.194;2023-08-31T00:22:33;99563.28;;;19.69;79.54
49759;BME280;70329;45.524;10.194;2023-08-31T00:24:59;99563.97;;;19.66;79.50
49759;BME280;70329;45.524;10.194;2023-08-31T00:27:24;99568.50;;;19.59;79.62
49759;BME280;70329;45.524;10.194;2023-08-31T00:29:49;99561.44;;;19.61;79.07
49759;BME280;70329;45.524;10.194;2023-08-31T00:32:16;99565.16;;;19.53;79.55
49759;BME280;70329;45.524;10.194;2023-08-31T00:34:42;99567.38;;;19.48;79.75
49759;BME280;70329;45.524;10.194;2023-08-31T00:37:07;99576.97;;;19.38;80.02
49759;BME280;70329;45.524;10.194;2023-08-31T00:39:33;99577.31;;;19.37;79.52
49759;BME280;70329;45.524;10.194;2023-08-31T00:41:59;99585.28;;;19.26;80.42
49759;BME280;70329;45.524;10.194;2023-08-31T00:44:25;99583.88;;;19.32;79.81
49759;BME280;70329;45.524;10.194;2023-08-31T00:46:51;99583.31;;;19.27;79.86
49759;BME280;70329;45.524;10.194;2023-08-31T00:49:17;99577.09;;;19.17;80.66
49759;BME280;70329;45.524;10.194;2023-08-31T00:51:43;99581.47;;;19.06;81.28
49759;BME280;70329;45.524;10.194;2023-08-31T00:54:18;99584.13;;;19.15;80.84
49759;BME280;70329;45.524;10.194;2023-08-31T00:56:44;99582.50;;;19.14;80.99
49759;BME280;70329;45.524;10.194;2023-08-31T00:59:10;99583.53;;;19.22;80.62
49759;BME280;70329;45.524;10.194;2023-08-31T01:02:15;99588.50;;;19.16;81.12
49759;BME280;70329;45.524;10.194;2023-08-31T01:07:31;99577.88;;;19.06;82.29
49759;BME280;70329;45.524;10.194;2023-08-31T01:10:11;99581.38;;;19.15;81.80
49759;BME280;70329;45.524;10.194;2023-08-31T01:15:11;99587.47;;;19.08;81.92
49759;BME280;70329;45.524;10.194;2023-08-31T01:17:40;99585.50;;;19.09;81.59
49759;BME280;70329;45.524;10.194;2023-08-31T01:20:09;99588.38;;;19.12;81.40
49759;BME280;70329;45.524;10.194;2023-08-31T01:22:40;99587.59;;;19.00;81.79
49759;BME280;70329;45.524;10.194;2023-08-31T01:25:08;99592.31;;;18.99;82.15
49759;BME280;70329;45.524;10.194;2023-08-31T01:27:35;99592.19;;;18.96;82.45
49759;BME280;70329;45.524;10.194;2023-08-31T01:30:04;99587.00;;;18.94;82.54
49759;BME280;70329;45.524;10.194;2023-08-31T01:32:31;99594.19;;;18.95;82.13
49759;BME280;70329;45.524;10.194;2023-08-31T01:34:57;99604.69;;;18.90;82.58
49759;BME280;70329;45.524;10.194;2023-08-31T01:37:47;99593.91;;;18.88;82.63
49759;BME280;70329;45.524;10.194;2023-08-31T01:40:20;99592.66;;;18.86;82.92
49759;BME280;70329;45.524;10.194;2023-08-31T01:42:48;99595.88;;;18.88;82.35
49759;BME280;70329;45.524;10.194;2023-08-31T01:45:19;99611.03;;;18.78;82.63
49759;BME280;70329;45.524;10.194;2023-08-31T01:47:48;99611.34;;;18.77;82.39
49759;BME280;70329;45.524;10.194;2023-08-31T01:50:13;99611.25;;;18.73;82.87
49759;BME280;70329;45.524;10.194;2023-08-31T01:52:39;99609.66;;;18.84;82.06
49759;BME280;70329;45.524;10.194;2023-08-31T01:55:07;99616.81;;;18.85;81.84
49759;BME280;70329;45.524;10.194;2023-08-31T01:57:33;99625.00;;;18.82;82.26
49759;BME280;70329;45.524;10.194;2023-08-31T01:59:59;99625.22;;;18.77;82.38
49759;BME280;70329;45.524;10.194;2023-08-31T02:02:24;99627.28;;;18.47;84.71
49759;BME280;70329;45.524;10.194;2023-08-31T02:04:50;99626.44;;;18.55;84.34
49759;BME280;70329;45.524;10.194;2023-08-31T02:07:18;99633.03;;;18.63;84.14
49759;BME280;70329;45.524;10.194;2023-08-31T02:09:44;99626.44;;;18.55;84.57
49759;BME280;70329;45.524;10.194;2023-08-31T02:12:10;99621.56;;;18.52;84.93
49759;BME280;70329;45.524;10.194;2023-08-31T02:14:35;99626.78;;;18.53;85.04
49759;BME280;70329;45.524;10.194;2023-08-31T02:17:01;99631.38;;;18.49;84.78
49759;BME280;70329;45.524;10.194;2023-08-31T02:19:26;99629.34;;;18.58;84.74
49759;BME280;70329;45.524;10.194;2023-08-31T02:21:52;99627.09;;;18.52;84.68
49759;BME280;70329;45.524;10.194;2023-08-31T02:24:17;99635.94;;;18.45;85.42
49759;BME280;70329;45.524;10.194;2023-08-31T02:26:42;99626.34;;;18.43;85.66
49759;BME280;70329;45.524;10.194;2023-08-31T02:29:08;99639.88;;;18.44;85.43
49759;BME280;70329;45.524;10.194;2023-08-31T02:31:33;99635.16;;;18.45;85.49
49759;BME280;70329;45.524;10.194;2023-08-31T02:33:58;99637.09;;;18.44;85.51
49759;BME280;70329;45.524;10.194;2023-08-31T02:36:24;99637.09;;;18.44;85.24
49759;BME280;70329;45.524;10.194;2023-08-31T02:38:49;99644.75;;;18.27;86.36
49759;BME280;70329;45.524;10.194;2023-08-31T02:41:15;99648.34;;;18.27;86.70
49759;BME280;70329;45.524;10.194;2023-08-31T02:43:42;99640.41;;;18.38;86.26
49759;BME280;70329;45.524;10.194;2023-08-31T02:46:08;99653.81;;;18.36;86.11
49759;BME280;70329;45.524;10.194;2023-08-31T02:48:33;99656.31;;;18.29;86.65
49759;BME280;70329;45.524;10.194;2023-08-31T02:50:59;99652.06;;;18.31;86.47
49759;BME280;70329;45.524;10.194;2023-08-31T02:53:29;99650.69;;;18.37;85.79
49759;BME280;70329;45.524;10.194;2023-08-31T02:55:54;99646.31;;;18.36;85.60
49759;BME280;70329;45.524;10.194;2023-08-31T02:58:20;99652.75;;;18.28;85.90
49759;BME280;70329;45.524;10.194;2023-08-31T03:00:45;99655.25;;;18.21;86.68
49759;BME280;70329;45.524;10.194;2023-08-31T03:03:16;99653.06;;;18.27;86.25
49759;BME280;70329;45.524;10.194;2023-08-31T03:05:42;99656.88;;;18.22;86.63
49759;BME280;70329;45.524;10.194;2023-08-31T03:08:08;99655.16;;;18.30;85.81
49759;BME280;70329;45.524;10.194;2023-08-31T03:10:34;99658.81;;;18.22;86.06
49759;BME280;70329;45.524;10.194;2023-08-31T03:12:59;99654.50;;;18.12;87.11
49759;BME280;70329;45.524;10.194;2023-08-31T03:15:24;99662.06;;;18.03;87.32
49759;BME280;70329;45.524;10.194;2023-08-31T03:17:50;99670.19;;;18.08;86.95
49759;BME280;70329;45.524;10.194;2023-08-31T03:20:15;99665.63;;;18.03;87.57
49759;BME280;70329;45.524;10.194;2023-08-31T03:22:40;99668.41;;;18.03;87.30
49759;BME280;70329;45.524;10.194;2023-08-31T03:25:06;99667.41;;;18.08;86.93
49759;BME280;70329;45.524;10.194;2023-08-31T03:27:32;99666.44;;;18.04;87.09
49759;BME280;70329;45.524;10.194;2023-08-31T03:29:57;99677.06;;;18.02;87.54
49759;BME280;70329;45.524;10.194;2023-08-31T03:32:22;99675.56;;;18.04;87.26
49759;BME280;70329;45.524;10.194;2023-08-31T03:34:48;99683.63;;;17.97;87.68
49759;BME280;70329;45.524;10.194;2023-08-31T03:37:13;99685.59;;;17.97;87.31
49759;BME280;70329;45.524;10.194;2023-08-31T03:39:39;99687.38;;;17.93;87.63
49759;BME280;70329;45.524;10.194;2023-08-31T03:42:06;99690.16;;;17.93;86.94
49759;BME280;70329;45.524;10.194;2023-08-31T03:44:31;99681.56;;;17.86;88.03
49759;BME280;70329;45.524;10.194;2023-08-31T03:46:57;99683.34;;;17.90;87.33
49759;BME280;70329;45.524;10.194;2023-08-31T03:49:22;99688.81;;;17.99;86.97
49759;BME280;70329;45.524;10.194;2023-08-31T03:51:47;99691.78;;;17.94;87.29
49759;BME280;70329;45.524;10.194;2023-08-31T03:54:13;99690.97;;;17.93;87.38
49759;BME280;70329;45.524;10.194;2023-08-31T03:56:39;99690.66;;;17.95;87.05
49759;BME280;70329;45.524;10.194;2023-08-31T03:59:05;99689.13;;;17.77;88.20
49759;BME280;70329;45.524;10.194;2023-08-31T04:01:30;99686.50;;;17.80;88.52
49759;BME280;70329;45.524;10.194;2023-08-31T04:03:56;99690.25;;;17.76;88.73
49759;BME280;70329;45.524;10.194;2023-08-31T04:06:21;99693.94;;;17.88;87.82
49759;BME280;70329;45.524;10.194;2023-08-31T04:08:46;99699.50;;;17.88;87.52
49759;BME280;70329;45.524;10.194;2023-08-31T04:11:12;99696.28;;;17.78;88.25
49759;BME280;70329;45.524;10.194;2023-08-31T04:13:37;99695.63;;;17.81;88.10
49759;BME280;70329;45.524;10.194;2023-08-31T04:16:03;99699.06;;;17.78;88.07
49759;BME280;70329;45.524;10.194;2023-08-31T04:18:28;99699.81;;;17.87;87.57
49759;BME280;70329;45.524;10.194;2023-08-31T04:20:54;99702.25;;;17.88;87.98
49759;BME280;70329;45.524;10.194;2023-08-31T04:23:19;99712.19;;;17.89;87.98
49759;BME280;70329;45.524;10.194;2023-08-31T04:25:46;99701.34;;;17.76;88.32
49759;BME280;70329;45.524;10.194;2023-08-31T04:28:12;99712.28;;;17.72;88.77
49759;BME280;70329;45.524;10.194;2023-08-31T04:30:39;99710.66;;;17.71;88.72
49759;BME280;70329;45.524;10.194;2023-08-31T04:33:06;99716.81;;;17.77;88.49
49759;BME280;70329;45.524;10.194;2023-08-31T04:35:31;99723.22;;;17.69;88.99
49759;BME280;70329;45.524;10.194;2023-08-31T04:37:57;99721.59;;;17.68;89.35
49759;BME280;70329;45.524;10.194;2023-08-31T04:40:23;99721.13;;;17.66;89.51
49759;BME280;70329;45.524;10.194;2023-08-31T04:42:49;99722.00;;;17.78;88.35
49759;BME280;70329;45.524;10.194;2023-08-31T04:45:15;99724.78;;;17.78;88.11
49759;BME280;70329;45.524;10.194;2023-08-31T04:47:41;99724.00;;;17.78;87.59
49759;BME280;70329;45.524;10.194;2023-08-31T04:50:08;99734.06;;;17.82;87.28
49759;BME280;70329;45.524;10.194;2023-08-31T04:52:34;99735.16;;;17.90;87.11
49759;BME280;70329;45.524;10.194;2023-08-31T04:55:06;99738.88;;;17.94;86.35
49759;BME280;70329;45.524;10.194;2023-08-31T04:57:36;99733.50;;;17.97;86.03
49759;BME280;70329;45.524;10.194;2023-08-31T05:00:01;99742.56;;;18.07;85.60
49759;BME280;70329;45.524;10.194;2023-08-31T05:02:28;99743.72;;;18.06;85.11
49759;BME280;70329;45.524;10.194;2023-08-31T05:04:53;99735.34;;;18.14;84.16
49759;BME280;70329;45.524;10.194;2023-08-31T05:07:20;99742.03;;;18.13;83.97
49759;BME280;70329;45.524;10.194;2023-08-31T05:09:47;99747.16;;;18.23;83.07
49759;BME280;70329;45.524;10.194;2023-08-31T05:12:13;99744.91;;;18.25;82.81
49759;BME280;70329;45.524;10.194;2023-08-31T05:14:38;99747.66;;;18.25;82.53
49759;BME280;70329;45.524;10.194;2023-08-31T05:17:05;99754.34;;;18.24;82.86
49759;BME280;70329;45.524;10.194;2023-08-31T05:19:30;99753.47;;;18.32;82.24
49759;BME280;70329;45.524;10.194;2023-08-31T05:21:56;99758.63;;;18.42;81.51
49759;BME280;70329;45.524;10.194;2023-08-31T05:24:22;99760.91;;;18.40;81.50
49759;BME280;70329;45.524;10.194;2023-08-31T05:26:49;99763.38;;;18.42;82.13
49759;BME280;70329;45.524;10.194;2023-08-31T05:29:14;99764.94;;;18.51;82.71
49759;BME280;70329;45.524;10.194;2023-08-31T05:31:40;99778.91;;;18.64;81.15
49759;BME280;70329;45.524;10.194;2023-08-31T05:34:05;99780.03;;;18.63;80.00
49759;BME280;70329;45.524;10.194;2023-08-31T05:36:31;99782.19;;;18.57;80.11
49759;BME280;70329;45.524;10.194;2023-08-31T05:38:56;99792.63;;;18.60;79.39
49759;BME280;70329;45.524;10.194;2023-08-31T05:41:21;99790.31;;;18.62;78.99
49759;BME280;70329;45.524;10.194;2023-08-31T05:43:47;99782.47;;;18.64;78.72
49759;BME280;70329;45.524;10.194;2023-08-31T05:46:12;99796.50;;;18.68;78.10
49759;BME280;70329;45.524;10.194;2023-08-31T05:48:37;99794.31;;;18.73;78.02
49759;BME280;70329;45.524;10.194;2023-08-31T05:51:03;99799.66;;;18.78;77.81
49759;BME280;70329;45.524;10.194;2023-08-31T05:53:31;99793.56;;;18.85;77.36
49759;BME280;70329;45.524;10.194;2023-08-31T05:55:58;99806.28;;;18.86;77.33
49759;BME280;70329;45.524;10.194;2023-08-31T05:58:35;99805.63;;;18.89;77.29
49759;BME280;70329;45.524;10.194;2023-08-31T06:01:03;99810.13;;;18.93;77.69
49759;BME280;70329;45.524;10.194;2023-08-31T06:03:31;99827.88;;;19.01;77.16
49759;BME280;70329;45.524;10.194;2023-08-31T06:05:57;99819.66;;;19.04;77.52
49759;BME280;70329;45.524;10.194;2023-08-31T06:08:24;99823.63;;;19.03;78.25
49759;BME280;70329;45.524;10.194;2023-08-31T06:10:51;99823.41;;;19.08;78.05
49759;BME280;70329;45.524;10.194;2023-08-31T06:13:18;99832.78;;;19.16;77.42
49759;BME280;70329;45.524;10.194;2023-08-31T06:15:43;99820.78;;;19.24;76.91
49759;BME280;70329;45.524;10.194;2023-08-31T06:18:12;99835.53;;;19.37;76.75
49759;BME280;70329;45.524;10.194;2023-08-31T06:20:37;99835.28;;;19.50;76.73
49759;BME280;70329;45.524;10.194;2023-08-31T06:23:02;99841.88;;;19.58;76.03
49759;BME280;70329;45.524;10.194;2023-08-31T06:25:28;99847.47;;;19.70;75.75
49759;BME280;70329;45.524;10.194;2023-08-31T06:27:54;99845.53;;;19.83;74.48
49759;BME280;70329;45.524;10.194;2023-08-31T06:30:19;99857.91;;;19.73;74.73
49759;BME280;70329;45.524;10.194;2023-08-31T06:32:46;99852.75;;;19.96;74.34
49759;BME280;70329;45.524;10.194;2023-08-31T06:35:13;99854.38;;;20.09;72.73
49759;BME280;70329;45.524;10.194;2023-08-31T06:37:42;99864.69;;;20.20;72.06
49759;BME280;70329;45.524;10.194;2023-08-31T06:40:10;99862.03;;;20.12;71.77
49759;BME280;70329;45.524;10.194;2023-08-31T06:42:36;99868.28;;;20.09;71.69
49759;BME280;70329;45.524;10.194;2023-08-31T06:45:04;99876.84;;;20.16;70.68
49759;BME280;70329;45.524;10.194;2023-08-31T06:47:32;99878.47;;;20.17;69.98
49759;BME280;70329;45.524;10.194;2023-08-31T06:49:59;99882.22;;;20.33;68.90
49759;BME280;70329;45.524;10.194;2023-08-31T06:52:26;99887.34;;;20.43;68.31
49759;BME280;70329;45.524;10.194;2023-08-31T06:54:53;99877.00;;;20.56;67.96
49759;BME280;70329;45.524;10.194;2023-08-31T06:57:24;99882.69;;;20.71;67.14
49759;BME280;70329;45.524;10.194;2023-08-31T06:59:51;99878.84;;;20.88;66.36
49759;BME280;70329;45.524;10.194;2023-08-31T07:02:18;99883.53;;;21.00;65.82
49759;BME280;70329;45.524;10.194;2023-08-31T07:04:51;99895.25;;;21.17;65.29
49759;BME280;70329;45.524;10.194;2023-08-31T07:07:19;99893.28;;;21.18;65.36
49759;BME280;70329;45.524;10.194;2023-08-31T07:09:46;99893.47;;;21.25;64.82
49759;BME280;70329;45.524;10.194;2023-08-31T07:12:13;99894.44;;;21.17;65.26
49759;BME280;70329;45.524;10.194;2023-08-31T07:14:40;99903.28;;;21.19;64.68
49759;BME280;70329;45.524;10.194;2023-08-31T07:17:06;99904.84;;;21.32;64.86
49759;BME280;70329;45.524;10.194;2023-08-31T07:19:35;99905.84;;;21.39;66.15
49759;BME280;70329;45.524;10.194;2023-08-31T07:22:02;99906.41;;;21.45;66.72
49759;BME280;70329;45.524;10.194;2023-08-31T07:24:30;99909.81;;;21.66;67.05
49759;BME280;70329;45.524;10.194;2023-08-31T07:26:57;99907.13;;;21.70;65.10
49759;BME280;70329;45.524;10.194;2023-08-31T07:29:24;99912.28;;;21.83;63.53
49759;BME280;70329;45.524;10.194;2023-08-31T07:31:51;99911.72;;;21.78;63.21
49759;BME280;70329;45.524;10.194;2023-08-31T07:34:17;99923.91;;;21.85;62.95
49759;BME280;70329;45.524;10.194;2023-08-31T07:36:44;99929.78;;;21.96;63.25
49759;BME280;70329;45.524;10.194;2023-08-31T07:39:11;99927.72;;;22.09;64.49
49759;BME280;70329;45.524;10.194;2023-08-31T07:41:38;99927.38;;;22.10;64.95
49759;BME280;70329;45.524;10.194;2023-08-31T07:44:05;99937.38;;;22.27;63.61
49759;BME280;70329;45.524;10.194;2023-08-31T07:46:32;99934.41;;;22.35;61.02
49759;BME280;70329;45.524;10.194;2023-08-31T07:48:59;99939.19;;;22.35;61.27
49759;BME280;70329;45.524;10.194;2023-08-31T07:51:26;99933.59;;;22.35;60.93
49759;BME280;70329;45.524;10.194;2023-08-31T07:53:51;99949.91;;;22.48;60.40
49759;BME280;70329;45.524;10.194;2023-08-31T07:56:17;99946.56;;;22.58;60.56
49759;BME280;70329;45.524;10.194;2023-08-31T07:58:44;99949.81;;;22.60;59.47
49759;BME280;70329;45.524;10.194;2023-08-31T08:01:10;99954.78;;;22.67;59.71
49759;BME280;70329;45.524;10.194;2023-08-31T08:03:36;99956.22;;;22.77;62.20
49759;BME280;70329;45.524;10.194;2023-08-31T08:06:01;99956.47;;;22.87;59.64
49759;BME280;70329;45.524;10.194;2023-08-31T08:08:26;99958.19;;;22.76;58.97
49759;BME280;70329;45.524;10.194;2023-08-31T08:10:53;99966.19;;;22.93;58.92
49759;BME280;70329;45.524;10.194;2023-08-31T08:13:18;99967.53;;;22.99;59.58
49759;BME280;70329;45.524;10.194;2023-08-31T08:15:45;99969.03;;;22.78;60.39
49759;BME280;70329;45.524;10.194;2023-08-31T08:18:10;99971.06;;;22.96;61.21
49759;BME280;70329;45.524;10.194;2023-08-31T08:20:36;99972.00;;;23.19;60.78
49759;BME280;70329;45.524;10.194;2023-08-31T08:23:01;99972.66;;;23.13;59.54
49759;BME280;70329;45.524;10.194;2023-08-31T08:25:26;99969.81;;;23.29;59.75
49759;BME280;70329;45.524;10.194;2023-08-31T08:27:53;99970.03;;;23.55;58.78
49759;BME280;70329;45.524;10.194;2023-08-31T08:30:18;99972.44;;;23.56;59.73
49759;BME280;70329;45.524;10.194;2023-08-31T08:32:45;99971.94;;;23.70;56.89
49759;BME280;70329;45.524;10.194;2023-08-31T08:35:11;99970.09;;;23.58;58.05
49759;BME280;70329;45.524;10.194;2023-08-31T08:37:36;99971.28;;;23.57;57.38
49759;BME280;70329;45.524;10.194;2023-08-31T08:40:02;99968.56;;;23.61;58.43
49759;BME280;70329;45.524;10.194;2023-08-31T08:42:30;99967.16;;;23.70;57.18
49759;BME280;70329;45.524;10.194;2023-08-31T08:44:57;99973.56;;;23.71;57.32
49759;BME280;70329;45.524;10.194;2023-08-31T08:47:25;99969.44;;;23.84;57.26
49759;BME280;70329;45.524;10.194;2023-08-31T08:49:51;99964.94;;;23.80;56.98
49759;BME280;70329;45.524;10.194;2023-08-31T08:52:18;99966.88;;;23.75;56.80
49759;BME280;70329;45.524;10.194;2023-08-31T08:54:44;99964.41;;;23.93;55.82
49759;BME280;70329;45.524;10.194;2023-08-31T08:57:10;99969.38;;;23.81;58.58
49759;BME280;70329;45.524;10.194;2023-08-31T08:59:35;99974.06;;;23.96;57.18
49759;BME280;70329;45.524;10.194;2023-08-31T09:02:01;99973.00;;;24.04;55.92
49759;BME280;70329;45.524;10.194;2023-08-31T09:04:29;99975.44;;;24.05;57.18
49759;BME280;70329;45.524;10.194;2023-08-31T09:06:55;99977.75;;;24.19;55.33
49759;BME280;70329;45.524;10.194;2023-08-31T09:09:20;99979.16;;;24.09;58.50
49759;BME280;70329;45.524;10.194;2023-08-31T09:11:46;99980.66;;;24.07;57.97
49759;BME280;70329;45.524;10.194;2023-08-31T09:14:16;99981.03;;;24.05;58.06
49759;BME280;70329;45.524;10.194;2023-08-31T09:16:49;99984.28;;;24.26;57.01
49759;BME280;70329;45.524;10.194;2023-08-31T09:19:25;99991.34;;;24.40;58.19
49759;BME280;70329;45.524;10.194;2023-08-31T09:21:56;99991.84;;;24.45;57.35
49759;BME280;70329;45.524;10.194;2023-08-31T09:24:22;99989.06;;;24.71;56.94
49759;BME280;70329;45.524;10.194;2023-08-31T09:26:57;99988.19;;;24.86;58.62
49759;BME280;70329;45.524;10.194;2023-08-31T09:29:23;99988.28;;;24.94;57.25
49759;BME280;70329;45.524;10.194;2023-08-31T09:31:48;99992.59;;;25.14;57.51
49759;BME280;70329;45.524;10.194;2023-08-31T09:34:14;99981.38;;;24.87;56.88
49759;BME280;70329;45.524;10.194;2023-08-31T09:36:40;99980.63;;;24.90;57.79
49759;BME280;70329;45.524;10.194;2023-08-31T09:39:06;99984.50;;;24.82;58.33
49759;BME280;70329;45.524;10.194;2023-08-31T09:41:32;99985.16;;;24.99;57.79
49759;BME280;70329;45.524;10.194;2023-08-31T09:44:17;99993.09;;;25.19;58.45
49759;BME280;70329;45.524;10.194;2023-08-31T09:46:44;100000.63;;;24.89;57.36
49759;BME280;70329;45.524;10.194;2023-08-31T09:49:13;99991.44;;;24.69;58.64
49759;BME280;70329;45.524;10.194;2023-08-31T09:51:39;99984.03;;;25.03;59.33
49759;BME280;70329;45.524;10.194;2023-08-31T09:54:07;99985.09;;;25.21;57.89
49759;BME280;70329;45.524;10.194;2023-08-31T09:56:33;99986.81;;;25.56;57.19
49759;BME280;70329;45.524;10.194;2023-08-31T09:59:00;99983.03;;;25.71;56.54
49759;BME280;70329;45.524;10.194;2023-08-31T10:01:25;99996.75;;;24.97;56.87
49759;BME280;70329;45.524;10.194;2023-08-31T10:03:51;99984.59;;;25.12;57.11
49759;BME280;70329;45.524;10.194;2023-08-31T10:06:17;99984.78;;;25.00;58.01
49759;BME280;70329;45.524;10.194;2023-08-31T10:08:44;99987.25;;;25.05;58.61
49759;BME280;70329;45.524;10.194;2023-08-31T10:11:09;99981.75;;;25.38;56.88
49759;BME280;70329;45.524;10.194;2023-08-31T10:13:40;99987.00;;;25.14;57.81
49759;BME280;70329;45.524;10.194;2023-08-31T10:16:06;99987.09;;;24.72;58.90
49759;BME280;70329;45.524;10.194;2023-08-31T10:18:34;99989.56;;;24.77;59.35
49759;BME280;70329;45.524;10.194;2023-08-31T10:21:01;99985.97;;;24.99;57.39
49759;BME280;70329;45.524;10.194;2023-08-31T10:23:27;99982.16;;;25.37;55.96
49759;BME280;70329;45.524;10.194;2023-08-31T10:28:21;99986.34;;;25.24;57.56
49759;BME280;70329;45.524;10.194;2023-08-31T10:33:56;99997.72;;;25.90;55.76
49759;BME280;70329;45.524;10.194;2023-08-31T10:36:45;99993.59;;;25.51;55.01
49759;BME280;70329;45.524;10.194;2023-08-31T10:39:15;99991.63;;;25.85;55.62
49759;BME280;70329;45.524;10.194;2023-08-31T10:41:52;99992.22;;;25.68;55.95
49759;BME280;70329;45.524;10.194;2023-08-31T10:44:18;99990.28;;;25.45;55.01
49759;BME280;70329;45.524;10.194;2023-08-31T10:46:44;99984.44;;;25.58;56.59
49759;BME280;70329;45.524;10.194;2023-08-31T10:49:13;99989.91;;;25.47;55.93
49759;BME280;70329;45.524;10.194;2023-08-31T10:51:50;99988.28;;;25.20;57.02
49759;BME280;70329;45.524;10.194;2023-08-31T10:54:29;99985.63;;;25.86;55.80
49759;BME280;70329;45.524;10.194;2023-08-31T10:57:05;99983.28;;;26.25;54.74
49759;BME280;70329;45.524;10.194;2023-08-31T10:59:52;99981.88;;;26.09;53.97
49759;BME280;70329;45.524;10.194;2023-08-31T11:02:43;99979.41;;;26.03;53.42
49759;BME280;70329;45.524;10.194;2023-08-31T11:05:10;99971.00;;;26.03;52.71
49759;BME280;70329;45.524;10.194;2023-08-31T11:07:43;99974.63;;;26.08;53.70
49759;BME280;70329;45.524;10.194;2023-08-31T11:10:18;99974.69;;;26.48;53.10
49759;BME280;70329;45.524;10.194;2023-08-31T11:12:46;99970.38;;;26.57;52.09
49759;BME280;70329;45.524;10.194;2023-08-31T11:15:19;99980.16;;;26.74;51.90
49759;BME280;70329;45.524;10.194;2023-08-31T11:17:46;99980.53;;;26.73;51.04
49759;BME280;70329;45.524;10.194;2023-08-31T11:20:16;99975.59;;;26.19;51.96
49759;BME280;70329;45.524;10.194;2023-08-31T11:22:43;99974.28;;;26.49;52.28
49759;BME280;70329;45.524;10.194;2023-08-31T11:25:11;99979.19;;;26.56;51.79
49759;BME280;70329;45.524;10.194;2023-08-31T11:27:37;99978.06;;;26.64;51.20
49759;BME280;70329;45.524;10.194;2023-08-31T11:30:15;99979.94;;;26.93;50.37
49759;BME280;70329;45.524;10.194;2023-08-31T11:32:50;99984.06;;;27.06;49.65
49759;BME280;70329;45.524;10.194;2023-08-31T11:35:19;99980.09;;;27.14;50.28
49759;BME280;70329;45.524;10.194;2023-08-31T11:37:50;99989.72;;;27.10;49.61
49759;BME280;70329;45.524;10.194;2023-08-31T11:40:18;99990.41;;;27.00;48.42
49759;BME280;70329;45.524;10.194;2023-08-31T11:42:45;99981.31;;;26.66;48.89
49759;BME280;70329;45.524;10.194;2023-08-31T11:45:12;99976.28;;;26.45;49.98
49759;BME280;70329;45.524;10.194;2023-08-31T11:47:41;99977.25;;;26.23;49.38
49759;BME280;70329;45.524;10.194;2023-08-31T11:50:10;99986.09;;;26.25;49.39
49759;BME280;70329;45.524;10.194;2023-08-31T11:52:37;99980.41;;;25.85;51.22
49759;BME280;70329;45.524;10.194;2023-08-31T11:55:08;99986.38;;;25.83;52.07
49759;BME280;70329;45.524;10.194;2023-08-31T11:57:34;99977.91;;;25.76;53.14
49759;BME280;70329;45.524;10.194;2023-08-31T12:00:02;99976.69;;;26.11;51.85
49759;BME280;70329;45.524;10.194;2023-08-31T12:02:35;99978.28;;;26.45;50.03
49759;BME280;70329;45.524;10.194;2023-08-31T12:05:01;99977.50;;;26.48;49.09
49759;BME280;70329;45.524;10.194;2023-08-31T12:07:28;99973.59;;;26.19;48.83
49759;BME280;70329;45.524;10.194;2023-08-31T12:09:53;99977.19;;;26.56;49.87
49759;BME280;70329;45.524;10.194;2023-08-31T12:12:23;99980.53;;;26.73;48.58
49759;BME280;70329;45.524;10.194;2023-08-31T12:14:52;99980.72;;;26.50;48.20
49759;BME280;70329;45.524;10.194;2023-08-31T12:17:19;99976.78;;;26.54;48.47
49759;BME280;70329;45.524;10.194;2023-08-31T12:19:46;99975.19;;;26.60;47.69
49759;BME280;70329;45.524;10.194;2023-08-31T12:22:11;99964.44;;;26.70;48.53
49759;BME280;70329;45.524;10.194;2023-08-31T12:24:40;99972.28;;;26.90;47.32
49759;BME280;70329;45.524;10.194;2023-08-31T12:27:06;99968.94;;;26.74;48.06
49759;BME280;70329;45.524;10.194;2023-08-31T12:29:32;99963.63;;;26.66;47.73
49759;BME280;70329;45.524;10.194;2023-08-31T12:31:58;99967.41;;;26.84;48.45
49759;BME280;70329;45.524;10.194;2023-08-31T12:34:25;99963.06;;;26.49;47.79
49759;BME280;70329;45.524;10.194;2023-08-31T12:36:52;99963.50;;;26.51;46.38
49759;BME280;70329;45.524;10.194;2023-08-31T12:39:19;99964.44;;;26.70;45.64
49759;BME280;70329;45.524;10.194;2023-08-31T12:41:45;99956.22;;;26.87;43.97
49759;BME280;70329;45.524;10.194;2023-08-31T12:44:11;99954.16;;;26.84;44.30
49759;BME280;70329;45.524;10.194;2023-08-31T12:46:37;99949.63;;;27.24;44.21
49759;BME280;70329;45.524;10.194;2023-08-31T12:49:02;99948.91;;;27.37;46.91
49759;BME280;70329;45.524;10.194;2023-08-31T12:51:30;99940.44;;;27.34;46.14
49759;BME280;70329;45.524;10.194;2023-08-31T12:53:56;99940.53;;;27.41;46.53
49759;BME280;70329;45.524;10.194;2023-08-31T12:56:22;99944.19;;;27.52;46.33
49759;BME280;70329;45.524;10.194;2023-08-31T12:58:51;99946.91;;;27.38;47.38
49759;BME280;70329;45.524;10.194;2023-08-31T13:01:19;99951.31;;;27.39;46.53